sensor_id;sensor_type;location;lat;lon;timestamp;P1;durP1;ratioP1;P2;durP2;ratioP2
77018;SDS011;66044;53.142;17.962;2024-02-26T00:01:22;86.20;;;35.60;;
77018;SDS011;66044;53.142;17.962;2024-02-26T00:03:57;70.10;;;33.20;;
77018;SDS011;66044;53.142;17.962;2024-02-26T00:06:25;62.90;;;29.30;;
77018;SDS011;66044;53.142;17.962;2024-02-26T00:08:51;54.90;;;28.50;;
77018;SDS011;66044;53.142;17.962;2024-02-26T00:11:17;62.70;;;30.00;;
77018;SDS011;66044;53.142;17.962;2024-02-26T00:13:43;58.40;;;29.90;;
77018;SDS011;66044;53.142;17.962;2024-02-26T00:16:08;55.70;;;30.00;;
77018;SDS011;66044;53.142;17.962;2024-02-26T00:18:34;64.70;;;32.30;;
77018;SDS011;66044;53.142;17.962;2024-02-26T00:21:01;78.50;;;38.10;;
77018;SDS011;66044;53.142;17.962;2024-02-26T00:23:28;65.30;;;30.80;;
77018;SDS011;66044;53.142;17.962;2024-02-26T00:25:54;79.70;;;38.00;;
77018;SDS011;66044;53.142;17.962;2024-02-26T00:28:20;72.00;;;33.50;;
77018;SDS011;66044;53.142;17.962;2024-02-26T00:30:46;77.10;;;35.80;;
77018;SDS011;66044;53.142;17.962;2024-02-26T00:33:15;65.70;;;31.70;;
77018;SDS011;66044;53.142;17.962;2024-02-26T00:35:42;63.90;;;30.30;;
77018;SDS011;66044;53.142;17.962;2024-02-26T00:38:08;69.40;;;31.30;;
77018;SDS011;66044;53.142;17.962;2024-02-26T00:40:33;64.20;;;30.00;;
77018;SDS011;66044;53.142;17.962;2024-02-26T00:42:59;61.30;;;28.90;;
77018;SDS011;66044;53.142;17.962;2024-02-26T00:45:25;52.60;;;24.60;;
77018;SDS011;66044;53.142;17.962;2024-02-26T00:47:51;58.80;;;24.90;;
77018;SDS011;66044;53.142;17.962;2024-02-26T00:50:17;56.40;;;26.30;;
77018;SDS011;66044;53.142;17.962;2024-02-26T00:52:43;52.60;;;26.30;;
77018;SDS011;66044;53.142;17.962;2024-02-26T00:55:08;48.40;;;24.50;;
77018;SDS011;66044;53.142;17.962;2024-02-26T00:57:34;46.10;;;22.70;;
77018;SDS011;66044;53.142;17.962;2024-02-26T01:00:00;42.20;;;22.40;;
77018;SDS011;66044;53.142;17.962;2024-02-26T01:02:26;39.70;;;21.90;;
77018;SDS011;66044;53.142;17.962;2024-02-26T01:04:52;42.70;;;22.70;;
77018;SDS011;66044;53.142;17.962;2024-02-26T01:07:18;43.20;;;21.50;;
77018;SDS011;66044;53.142;17.962;2024-02-26T01:09:44;36.60;;;19.10;;
77018;SDS011;66044;53.142;17.962;2024-02-26T01:12:10;36.30;;;19.90;;
77018;SDS011;66044;53.142;17.962;2024-02-26T01:14:36;36.50;;;18.80;;
77018;SDS011;66044;53.142;17.962;2024-02-26T01:17:02;33.50;;;16.80;;
77018;SDS011;66044;53.142;17.962;2024-02-26T01:19:28;31.20;;;18.20;;
77018;SDS011;66044;53.142;17.962;2024-02-26T01:21:54;34.00;;;17.80;;
77018;SDS011;66044;53.142;17.962;2024-02-26T01:24:20;33.90;;;17.70;;
77018;SDS011;66044;53.142;17.962;2024-02-26T01:26:46;29.80;;;15.90;;
77018;SDS011;66044;53.142;17.962;2024-02-26T01:29:12;29.50;;;17.10;;
77018;SDS011;66044;53.142;17.962;2024-02-26T01:31:37;27.20;;;15.10;;
77018;SDS011;66044;53.142;17.962;2024-02-26T01:34:03;31.10;;;16.90;;
77018;SDS011;66044;53.142;17.962;2024-02-26T01:36:29;27.90;;;16.40;;
77018;SDS011;66044;53.142;17.962;2024-02-26T01:38:55;28.40;;;16.40;;
77018;SDS011;66044;53.142;17.962;2024-02-26T01:41:21;28.20;;;15.00;;
77018;SDS011;66044;53.142;17.962;2024-02-26T01:43:47;27.10;;;16.10;;
77018;SDS011;66044;53.142;17.962;2024-02-26T01:46:13;26.80;;;15.80;;
77018;SDS011;66044;53.142;17.962;2024-02-26T01:48:41;25.90;;;15.30;;
77018;SDS011;66044;53.142;17.962;2024-02-26T01:51:10;27.30;;;16.30;;
77018;SDS011;66044;53.142;17.962;2024-02-26T01:53:38;29.90;;;17.40;;
77018;SDS011;66044;53.142;17.962;2024-02-26T01:56:04;28.30;;;17.10;;
77018;SDS011;66044;53.142;17.962;2024-02-26T01:58:30;29.50;;;16.00;;
77018;SDS011;66044;53.142;17.962;2024-02-26T02:00:57;30.70;;;16.00;;
77018;SDS011;66044;53.142;17.962;2024-02-26T02:03:23;26.80;;;15.20;;
77018;SDS011;66044;53.142;17.962;2024-02-26T02:05:50;27.40;;;16.10;;
77018;SDS011;66044;53.142;17.962;2024-02-26T02:08:16;32.50;;;16.20;;
77018;SDS011;66044;53.142;17.962;2024-02-26T02:10:42;25.90;;;14.90;;
77018;SDS011;66044;53.142;17.962;2024-02-26T02:13:08;26.30;;;16.10;;
77018;SDS011;66044;53.142;17.962;2024-02-26T02:15:33;27.80;;;15.30;;
77018;SDS011;66044;53.142;17.962;2024-02-26T02:17:59;28.70;;;16.60;;
77018;SDS011;66044;53.142;17.962;2024-02-26T02:20:31;26.00;;;15.40;;
77018;SDS011;66044;53.142;17.962;2024-02-26T02:23:01;25.60;;;14.10;;
77018;SDS011;66044;53.142;17.962;2024-02-26T02:25:27;42.10;;;23.40;;
77018;SDS011;66044;53.142;17.962;2024-02-26T02:27:53;36.70;;;21.80;;
77018;SDS011;66044;53.142;17.962;2024-02-26T02:30:21;32.20;;;19.50;;
77018;SDS011;66044;53.142;17.962;2024-02-26T02:32:51;25.60;;;14.60;;
77018;SDS011;66044;53.142;17.962;2024-02-26T02:35:17;24.50;;;14.40;;
77018;SDS011;66044;53.142;17.962;2024-02-26T02:37:43;26.60;;;15.20;;
77018;SDS011;66044;53.142;17.962;2024-02-26T02:40:08;28.70;;;15.60;;
77018;SDS011;66044;53.142;17.962;2024-02-26T02:42:35;30.30;;;16.30;;
77018;SDS011;66044;53.142;17.962;2024-02-26T02:45:01;23.40;;;13.70;;
77018;SDS011;66044;53.142;17.962;2024-02-26T02:47:27;33.40;;;18.20;;
77018;SDS011;66044;53.142;17.962;2024-02-26T02:49:53;29.80;;;16.80;;
77018;SDS011;66044;53.142;17.962;2024-02-26T02:52:18;32.00;;;18.60;;
77018;SDS011;66044;53.142;17.962;2024-02-26T02:54:45;28.20;;;17.10;;
77018;SDS011;66044;53.142;17.962;2024-02-26T02:57:12;29.30;;;17.20;;
77018;SDS011;66044;53.142;17.962;2024-02-26T02:59:39;32.70;;;18.70;;
77018;SDS011;66044;53.142;17.962;2024-02-26T03:02:05;30.30;;;17.90;;
77018;SDS011;66044;53.142;17.962;2024-02-26T03:04:32;26.80;;;15.90;;
77018;SDS011;66044;53.142;17.962;2024-02-26T03:06:58;22.90;;;13.80;;
77018;SDS011;66044;53.142;17.962;2024-02-26T03:09:24;22.90;;;13.70;;
77018;SDS011;66044;53.142;17.962;2024-02-26T03:11:50;33.50;;;18.00;;
77018;SDS011;66044;53.142;17.962;2024-02-26T03:14:15;25.00;;;13.80;;
77018;SDS011;66044;53.142;17.962;2024-02-26T03:16:41;21.90;;;13.50;;
77018;SDS011;66044;53.142;17.962;2024-02-26T03:19:07;22.80;;;13.70;;
77018;SDS011;66044;53.142;17.962;2024-02-26T03:21:33;23.90;;;13.00;;
77018;SDS011;66044;53.142;17.962;2024-02-26T03:23:59;21.60;;;13.60;;
77018;SDS011;66044;53.142;17.962;2024-02-26T03:26:24;26.80;;;15.20;;
77018;SDS011;66044;53.142;17.962;2024-02-26T03:28:50;28.30;;;16.80;;
77018;SDS011;66044;53.142;17.962;2024-02-26T03:31:16;20.80;;;13.60;;
77018;SDS011;66044;53.142;17.962;2024-02-26T03:33:42;20.60;;;11.70;;
77018;SDS011;66044;53.142;17.962;2024-02-26T03:36:07;21.80;;;13.30;;
77018;SDS011;66044;53.142;17.962;2024-02-26T03:38:33;32.40;;;18.20;;
77018;SDS011;66044;53.142;17.962;2024-02-26T03:40:59;29.40;;;17.20;;
77018;SDS011;66044;53.142;17.962;2024-02-26T03:43:25;31.40;;;18.70;;
77018;SDS011;66044;53.142;17.962;2024-02-26T03:45:51;29.00;;;16.40;;
77018;SDS011;66044;53.142;17.962;2024-02-26T03:48:16;26.20;;;14.40;;
77018;SDS011;66044;53.142;17.962;2024-02-26T03:50:43;31.00;;;18.40;;
77018;SDS011;66044;53.142;17.962;2024-02-26T03:53:08;46.20;;;24.60;;
77018;SDS011;66044;53.142;17.962;2024-02-26T03:55:34;41.30;;;23.50;;
77018;SDS011;66044;53.142;17.962;2024-02-26T03:58:01;35.00;;;19.30;;
77018;SDS011;66044;53.142;17.962;2024-02-26T04:00:26;29.20;;;17.10;;
77018;SDS011;66044;53.142;17.962;2024-02-26T04:02:54;34.50;;;19.00;;
77018;SDS011;66044;53.142;17.962;2024-02-26T04:05:21;37.60;;;21.50;;
77018;SDS011;66044;53.142;17.962;2024-02-26T04:07:46;27.00;;;16.80;;
77018;SDS011;66044;53.142;17.962;2024-02-26T04:10:12;35.60;;;20.90;;
77018;SDS011;66044;53.142;17.962;2024-02-26T04:12:39;37.20;;;21.40;;
77018;SDS011;66044;53.142;17.962;2024-02-26T04:15:06;47.50;;;26.60;;
77018;SDS011;66044;53.142;17.962;2024-02-26T04:17:33;40.10;;;23.20;;
77018;SDS011;66044;53.142;17.962;2024-02-26T04:19:59;45.20;;;24.50;;
77018;SDS011;66044;53.142;17.962;2024-02-26T04:22:25;40.70;;;22.10;;
77018;SDS011;66044;53.142;17.962;2024-02-26T04:24:50;43.30;;;22.90;;
77018;SDS011;66044;53.142;17.962;2024-02-26T04:27:16;34.90;;;21.10;;
77018;SDS011;66044;53.142;17.962;2024-02-26T04:29:42;35.90;;;21.20;;
77018;SDS011;66044;53.142;17.962;2024-02-26T04:32:08;36.40;;;19.80;;
77018;SDS011;66044;53.142;17.962;2024-02-26T04:34:34;35.20;;;19.20;;
77018;SDS011;66044;53.142;17.962;2024-02-26T04:36:59;33.00;;;19.60;;
77018;SDS011;66044;53.142;17.962;2024-02-26T04:39:25;36.20;;;19.30;;
77018;SDS011;66044;53.142;17.962;2024-02-26T04:41:51;40.40;;;21.30;;
77018;SDS011;66044;53.142;17.962;2024-02-26T04:44:17;37.30;;;20.50;;
77018;SDS011;66044;53.142;17.962;2024-02-26T04:46:43;35.60;;;18.90;;
77018;SDS011;66044;53.142;17.962;2024-02-26T04:49:10;31.40;;;17.80;;
77018;SDS011;66044;53.142;17.962;2024-02-26T04:51:35;30.90;;;17.00;;
77018;SDS011;66044;53.142;17.962;2024-02-26T04:54:02;33.80;;;17.90;;
77018;SDS011;66044;53.142;17.962;2024-02-26T04:56:28;30.80;;;18.30;;
77018;SDS011;66044;53.142;17.962;2024-02-26T04:58:54;30.80;;;18.00;;
77018;SDS011;66044;53.142;17.962;2024-02-26T05:01:20;33.00;;;19.80;;
77018;SDS011;66044;53.142;17.962;2024-02-26T05:03:46;31.80;;;18.20;;
77018;SDS011;66044;53.142;17.962;2024-02-26T05:06:12;34.10;;;18.50;;
77018;SDS011;66044;53.142;17.962;2024-02-26T05:08:38;32.00;;;19.40;;
77018;SDS011;66044;53.142;17.962;2024-02-26T05:11:04;34.30;;;18.30;;
77018;SDS011;66044;53.142;17.962;2024-02-26T05:13:31;28.50;;;16.10;;
77018;SDS011;66044;53.142;17.962;2024-02-26T05:15:57;27.20;;;15.90;;
77018;SDS011;66044;53.142;17.962;2024-02-26T05:18:23;22.20;;;13.10;;
77018;SDS011;66044;53.142;17.962;2024-02-26T05:20:50;29.40;;;16.00;;
77018;SDS011;66044;53.142;17.962;2024-02-26T05:23:16;28.20;;;15.10;;
77018;SDS011;66044;53.142;17.962;2024-02-26T05:25:42;30.50;;;16.90;;
77018;SDS011;66044;53.142;17.962;2024-02-26T05:28:08;34.50;;;20.20;;
77018;SDS011;66044;53.142;17.962;2024-02-26T05:30:34;42.70;;;21.80;;
77018;SDS011;66044;53.142;17.962;2024-02-26T05:33:00;35.40;;;20.40;;
77018;SDS011;66044;53.142;17.962;2024-02-26T05:35:26;44.00;;;23.10;;
77018;SDS011;66044;53.142;17.962;2024-02-26T05:37:51;40.90;;;21.00;;
77018;SDS011;66044;53.142;17.962;2024-02-26T05:40:18;32.70;;;17.40;;
77018;SDS011;66044;53.142;17.962;2024-02-26T05:42:44;33.90;;;18.00;;
77018;SDS011;66044;53.142;17.962;2024-02-26T05:45:10;34.90;;;18.40;;
77018;SDS011;66044;53.142;17.962;2024-02-26T05:47:36;33.30;;;17.30;;
77018;SDS011;66044;53.142;17.962;2024-02-26T05:50:11;28.40;;;15.30;;
77018;SDS011;66044;53.142;17.962;2024-02-26T05:52:38;23.80;;;14.00;;
77018;SDS011;66044;53.142;17.962;2024-02-26T05:55:04;29.60;;;17.60;;
77018;SDS011;66044;53.142;17.962;2024-02-26T05:57:31;34.20;;;19.50;;
77018;SDS011;66044;53.142;17.962;2024-02-26T05:59:57;29.30;;;17.70;;
77018;SDS011;66044;53.142;17.962;2024-02-26T06:02:26;32.50;;;19.30;;
77018;SDS011;66044;53.142;17.962;2024-02-26T06:04:52;35.30;;;20.80;;
77018;SDS011;66044;53.142;17.962;2024-02-26T06:07:18;32.80;;;19.40;;
77018;SDS011;66044;53.142;17.962;2024-02-26T06:09:44;36.40;;;20.50;;
77018;SDS011;66044;53.142;17.962;2024-02-26T06:12:09;29.10;;;17.60;;
77018;SDS011;66044;53.142;17.962;2024-02-26T06:14:35;31.70;;;18.10;;
77018;SDS011;66044;53.142;17.962;2024-02-26T06:17:02;43.30;;;25.40;;
77018;SDS011;66044;53.142;17.962;2024-02-26T06:19:27;36.60;;;20.80;;
77018;SDS011;66044;53.142;17.962;2024-02-26T06:21:53;42.00;;;23.20;;
77018;SDS011;66044;53.142;17.962;2024-02-26T06:24:19;27.70;;;17.30;;
77018;SDS011;66044;53.142;17.962;2024-02-26T06:26:46;28.20;;;16.60;;
77018;SDS011;66044;53.142;17.962;2024-02-26T06:29:12;29.50;;;16.90;;
77018;SDS011;66044;53.142;17.962;2024-02-26T06:31:40;31.80;;;18.00;;
77018;SDS011;66044;53.142;17.962;2024-02-26T06:34:06;27.30;;;16.20;;
77018;SDS011;66044;53.142;17.962;2024-02-26T06:36:32;24.70;;;14.70;;
77018;SDS011;66044;53.142;17.962;2024-02-26T06:38:58;46.00;;;24.20;;
77018;SDS011;66044;53.142;17.962;2024-02-26T06:41:24;41.70;;;24.40;;
77018;SDS011;66044;53.142;17.962;2024-02-26T06:43:53;43.20;;;24.30;;
77018;SDS011;66044;53.142;17.962;2024-02-26T06:46:20;39.40;;;22.30;;
77018;SDS011;66044;53.142;17.962;2024-02-26T06:48:45;38.10;;;21.50;;
77018;SDS011;66044;53.142;17.962;2024-02-26T06:51:13;30.90;;;17.80;;
77018;SDS011;66044;53.142;17.962;2024-02-26T06:53:39;25.40;;;15.80;;
77018;SDS011;66044;53.142;17.962;2024-02-26T06:56:05;19.80;;;12.80;;
77018;SDS011;66044;53.142;17.962;2024-02-26T06:58:31;20.10;;;12.70;;
77018;SDS011;66044;53.142;17.962;2024-02-26T07:00:57;30.70;;;17.40;;
77018;SDS011;66044;53.142;17.962;2024-02-26T07:03:23;31.80;;;19.80;;
77018;SDS011;66044;53.142;17.962;2024-02-26T07:05:51;29.40;;;16.20;;
77018;SDS011;66044;53.142;17.962;2024-02-26T07:08:17;37.90;;;22.10;;
77018;SDS011;66044;53.142;17.962;2024-02-26T07:10:44;38.40;;;23.10;;
77018;SDS011;66044;53.142;17.962;2024-02-26T07:13:09;47.60;;;24.60;;
77018;SDS011;66044;53.142;17.962;2024-02-26T07:15:35;45.40;;;25.50;;
77018;SDS011;66044;53.142;17.962;2024-02-26T07:18:02;46.90;;;26.00;;
77018;SDS011;66044;53.142;17.962;2024-02-26T07:20:29;45.00;;;25.00;;
77018;SDS011;66044;53.142;17.962;2024-02-26T07:22:57;48.80;;;21.90;;
77018;SDS011;66044;53.142;17.962;2024-02-26T07:25:23;45.20;;;23.70;;
77018;SDS011;66044;53.142;17.962;2024-02-26T07:27:50;47.20;;;23.50;;
77018;SDS011;66044;53.142;17.962;2024-02-26T07:30:16;43.80;;;21.00;;
77018;SDS011;66044;53.142;17.962;2024-02-26T07:32:42;44.10;;;22.20;;
77018;SDS011;66044;53.142;17.962;2024-02-26T07:35:10;50.40;;;25.20;;
77018;SDS011;66044;53.142;17.962;2024-02-26T07:37:35;44.40;;;23.90;;
77018;SDS011;66044;53.142;17.962;2024-02-26T07:40:01;41.50;;;23.10;;
77018;SDS011;66044;53.142;17.962;2024-02-26T07:42:27;35.10;;;20.40;;
77018;SDS011;66044;53.142;17.962;2024-02-26T07:44:53;41.50;;;23.30;;
77018;SDS011;66044;53.142;17.962;2024-02-26T07:47:19;36.50;;;20.80;;
77018;SDS011;66044;53.142;17.962;2024-02-26T07:49:47;33.60;;;18.70;;
77018;SDS011;66044;53.142;17.962;2024-02-26T07:52:13;36.60;;;20.70;;
77018;SDS011;66044;53.142;17.962;2024-02-26T07:54:39;39.80;;;22.70;;
77018;SDS011;66044;53.142;17.962;2024-02-26T07:57:05;30.00;;;19.10;;
77018;SDS011;66044;53.142;17.962;2024-02-26T07:59:32;27.20;;;15.60;;
77018;SDS011;66044;53.142;17.962;2024-02-26T08:01:57;25.60;;;15.90;;
77018;SDS011;66044;53.142;17.962;2024-02-26T08:04:24;36.10;;;21.00;;
77018;SDS011;66044;53.142;17.962;2024-02-26T08:06:52;37.60;;;20.70;;
77018;SDS011;66044;53.142;17.962;2024-02-26T08:09:19;47.40;;;27.40;;
77018;SDS011;66044;53.142;17.962;2024-02-26T08:11:45;41.90;;;24.00;;
77018;SDS011;66044;53.142;17.962;2024-02-26T08:14:11;31.50;;;19.00;;
77018;SDS011;66044;53.142;17.962;2024-02-26T08:16:37;35.60;;;20.80;;
77018;SDS011;66044;53.142;17.962;2024-02-26T08:19:03;31.90;;;18.60;;
77018;SDS011;66044;53.142;17.962;2024-02-26T08:21:29;33.80;;;21.20;;
77018;SDS011;66044;53.142;17.962;2024-02-26T08:23:55;35.80;;;20.80;;
77018;SDS011;66044;53.142;17.962;2024-02-26T08:26:21;35.50;;;22.50;;
77018;SDS011;66044;53.142;17.962;2024-02-26T08:28:48;42.00;;;24.60;;
77018;SDS011;66044;53.142;17.962;2024-02-26T08:31:14;37.40;;;21.90;;
77018;SDS011;66044;53.142;17.962;2024-02-26T08:33:40;35.50;;;21.70;;
77018;SDS011;66044;53.142;17.962;2024-02-26T08:36:06;42.30;;;24.30;;
77018;SDS011;66044;53.142;17.962;2024-02-26T08:38:32;30.30;;;17.80;;
77018;SDS011;66044;53.142;17.962;2024-02-26T08:41:01;31.30;;;19.00;;
77018;SDS011;66044;53.142;17.962;2024-02-26T08:43:28;32.60;;;19.60;;
77018;SDS011;66044;53.142;17.962;2024-02-26T08:45:54;33.80;;;21.20;;
77018;SDS011;66044;53.142;17.962;2024-02-26T08:48:24;37.90;;;22.70;;
77018;SDS011;66044;53.142;17.962;2024-02-26T08:50:49;31.40;;;18.90;;
77018;SDS011;66044;53.142;17.962;2024-02-26T08:53:15;34.80;;;20.10;;
77018;SDS011;66044;53.142;17.962;2024-02-26T08:55:44;30.70;;;18.40;;
77018;SDS011;66044;53.142;17.962;2024-02-26T08:58:09;29.90;;;19.80;;
77018;SDS011;66044;53.142;17.962;2024-02-26T09:00:35;29.40;;;18.70;;
77018;SDS011;66044;53.142;17.962;2024-02-26T09:03:01;23.50;;;14.70;;
77018;SDS011;66044;53.142;17.962;2024-02-26T09:05:27;28.30;;;17.70;;
77018;SDS011;66044;53.142;17.962;2024-02-26T09:07:52;24.80;;;16.40;;
77018;SDS011;66044;53.142;17.962;2024-02-26T09:10:19;34.70;;;21.30;;
77018;SDS011;66044;53.142;17.962;2024-02-26T09:12:44;35.00;;;21.20;;
77018;SDS011;66044;53.142;17.962;2024-02-26T09:15:10;24.60;;;15.60;;
77018;SDS011;66044;53.142;17.962;2024-02-26T09:17:37;28.10;;;14.40;;
77018;SDS011;66044;53.142;17.962;2024-02-26T09:20:03;27.70;;;16.90;;
77018;SDS011;66044;53.142;17.962;2024-02-26T09:22:29;33.80;;;18.70;;
77018;SDS011;66044;53.142;17.962;2024-02-26T09:24:55;27.00;;;16.30;;
77018;SDS011;66044;53.142;17.962;2024-02-26T09:27:21;37.40;;;20.90;;
77018;SDS011;66044;53.142;17.962;2024-02-26T09:29:46;33.20;;;19.30;;
77018;SDS011;66044;53.142;17.962;2024-02-26T09:32:13;21.50;;;14.00;;
77018;SDS011;66044;53.142;17.962;2024-02-26T09:34:40;26.60;;;15.50;;
77018;SDS011;66044;53.142;17.962;2024-02-26T09:37:07;29.40;;;17.30;;
77018;SDS011;66044;53.142;17.962;2024-02-26T09:39:32;42.00;;;20.60;;
77018;SDS011;66044;53.142;17.962;2024-02-26T09:41:58;27.90;;;16.30;;
77018;SDS011;66044;53.142;17.962;2024-02-26T09:44:28;27.60;;;16.20;;
77018;SDS011;66044;53.142;17.962;2024-02-26T09:46:56;35.30;;;21.00;;
77018;SDS011;66044;53.142;17.962;2024-02-26T09:49:23;27.70;;;15.60;;
77018;SDS011;66044;53.142;17.962;2024-02-26T09:51:50;23.70;;;14.10;;
77018;SDS011;66044;53.142;17.962;2024-02-26T09:54:17;35.10;;;21.00;;
77018;SDS011;66044;53.142;17.962;2024-02-26T09:56:43;36.30;;;20.30;;
77018;SDS011;66044;53.142;17.962;2024-02-26T09:59:16;28.80;;;16.50;;
77018;SDS011;66044;53.142;17.962;2024-02-26T10:01:42;33.50;;;19.80;;
77018;SDS011;66044;53.142;17.962;2024-02-26T10:04:10;31.10;;;19.00;;
77018;SDS011;66044;53.142;17.962;2024-02-26T10:06:37;25.20;;;15.60;;
77018;SDS011;66044;53.142;17.962;2024-02-26T10:09:03;32.20;;;17.90;;
77018;SDS011;66044;53.142;17.962;2024-02-26T10:11:32;33.40;;;18.90;;
77018;SDS011;66044;53.142;17.962;2024-02-26T10:13:58;30.80;;;18.50;;
77018;SDS011;66044;53.142;17.962;2024-02-26T10:16:24;39.60;;;19.00;;
77018;SDS011;66044;53.142;17.962;2024-02-26T10:18:51;21.50;;;12.80;;
77018;SDS011;66044;53.142;17.962;2024-02-26T10:21:19;25.30;;;14.80;;
77018;SDS011;66044;53.142;17.962;2024-02-26T10:23:46;27.30;;;14.80;;
77018;SDS011;66044;53.142;17.962;2024-02-26T10:26:16;18.80;;;11.00;;
77018;SDS011;66044;53.142;17.962;2024-02-26T10:28:42;27.00;;;15.80;;
77018;SDS011;66044;53.142;17.962;2024-02-26T10:31:09;22.60;;;12.40;;
77018;SDS011;66044;53.142;17.962;2024-02-26T10:33:36;18.80;;;10.50;;
77018;SDS011;66044;53.142;17.962;2024-02-26T10:36:04;21.40;;;11.40;;
77018;SDS011;66044;53.142;17.962;2024-02-26T10:38:32;23.10;;;13.60;;
77018;SDS011;66044;53.142;17.962;2024-02-26T10:40:58;18.70;;;11.30;;
77018;SDS011;66044;53.142;17.962;2024-02-26T10:43:27;22.00;;;10.20;;
77018;SDS011;66044;53.142;17.962;2024-02-26T10:45:56;24.90;;;11.70;;
77018;SDS011;66044;53.142;17.962;2024-02-26T10:48:22;24.60;;;11.40;;
77018;SDS011;66044;53.142;17.962;2024-02-26T10:50:48;19.70;;;11.20;;
77018;SDS011;66044;53.142;17.962;2024-02-26T10:53:22;21.10;;;11.20;;
77018;SDS011;66044;53.142;17.962;2024-02-26T10:55:57;20.10;;;11.40;;
77018;SDS011;66044;53.142;17.962;2024-02-26T10:58:26;23.90;;;13.20;;
77018;SDS011;66044;53.142;17.962;2024-02-26T11:00:54;23.70;;;12.40;;
77018;SDS011;66044;53.142;17.962;2024-02-26T11:03:22;24.80;;;13.50;;
77018;SDS011;66044;53.142;17.962;2024-02-26T11:05:50;20.80;;;11.50;;
77018;SDS011;66044;53.142;17.962;2024-02-26T11:08:19;15.60;;;9.80;;
77018;SDS011;66044;53.142;17.962;2024-02-26T11:10:50;23.00;;;14.70;;
77018;SDS011;66044;53.142;17.962;2024-02-26T11:13:19;25.90;;;14.10;;
77018;SDS011;66044;53.142;17.962;2024-02-26T11:15:47;21.60;;;12.60;;
77018;SDS011;66044;53.142;17.962;2024-02-26T11:18:16;18.90;;;10.70;;
77018;SDS011;66044;53.142;17.962;2024-02-26T11:20:42;24.70;;;12.10;;
77018;SDS011;66044;53.142;17.962;2024-02-26T11:23:10;19.50;;;10.60;;
77018;SDS011;66044;53.142;17.962;2024-02-26T11:25:36;19.00;;;10.60;;
77018;SDS011;66044;53.142;17.962;2024-02-26T11:28:04;22.30;;;12.00;;
77018;SDS011;66044;53.142;17.962;2024-02-26T11:30:34;20.70;;;11.30;;
77018;SDS011;66044;53.142;17.962;2024-02-26T11:33:06;24.50;;;13.10;;
77018;SDS011;66044;53.142;17.962;2024-02-26T11:35:34;19.80;;;11.00;;
77018;SDS011;66044;53.142;17.962;2024-02-26T11:38:02;21.10;;;11.60;;
77018;SDS011;66044;53.142;17.962;2024-02-26T11:40:30;20.00;;;11.50;;
77018;SDS011;66044;53.142;17.962;2024-02-26T11:42:57;24.10;;;13.90;;
77018;SDS011;66044;53.142;17.962;2024-02-26T11:51:00;21.30;;;10.50;;
77018;SDS011;66044;53.142;17.962;2024-02-26T11:56:12;25.10;;;13.80;;
77018;SDS011;66044;53.142;17.962;2024-02-26T11:59:03;25.40;;;13.00;;
77018;SDS011;66044;53.142;17.962;2024-02-26T12:04:18;24.90;;;12.70;;
77018;SDS011;66044;53.142;17.962;2024-02-26T12:06:53;21.80;;;12.80;;
77018;SDS011;66044;53.142;17.962;2024-02-26T12:09:35;20.90;;;11.80;;
77018;SDS011;66044;53.142;17.962;2024-02-26T12:12:08;22.20;;;13.70;;
77018;SDS011;66044;53.142;17.962;2024-02-26T12:14:52;20.50;;;11.70;;
77018;SDS011;66044;53.142;17.962;2024-02-26T12:17:22;26.70;;;14.10;;
77018;SDS011;66044;53.142;17.962;2024-02-26T12:19:51;22.20;;;12.50;;
77018;SDS011;66044;53.142;17.962;2024-02-26T12:22:19;22.90;;;13.00;;
77018;SDS011;66044;53.142;17.962;2024-02-26T12:24:45;18.20;;;10.40;;
77018;SDS011;66044;53.142;17.962;2024-02-26T12:27:11;23.10;;;11.70;;
77018;SDS011;66044;53.142;17.962;2024-02-26T12:29:37;23.30;;;13.80;;
77018;SDS011;66044;53.142;17.962;2024-02-26T12:32:04;17.70;;;9.90;;
77018;SDS011;66044;53.142;17.962;2024-02-26T12:34:32;20.30;;;10.70;;
77018;SDS011;66044;53.142;17.962;2024-02-26T12:36:58;20.20;;;10.10;;
77018;SDS011;66044;53.142;17.962;2024-02-26T12:39:24;18.60;;;10.00;;
77018;SDS011;66044;53.142;17.962;2024-02-26T12:41:50;16.00;;;9.30;;
77018;SDS011;66044;53.142;17.962;2024-02-26T12:44:16;21.30;;;11.60;;
77018;SDS011;66044;53.142;17.962;2024-02-26T12:46:42;16.60;;;9.00;;
77018;SDS011;66044;53.142;17.962;2024-02-26T12:49:08;19.40;;;10.00;;
77018;SDS011;66044;53.142;17.962;2024-02-26T12:51:35;16.50;;;8.50;;
77018;SDS011;66044;53.142;17.962;2024-02-26T12:54:02;14.90;;;8.10;;
77018;SDS011;66044;53.142;17.962;2024-02-26T12:56:28;16.30;;;7.60;;
77018;SDS011;66044;53.142;17.962;2024-02-26T12:58:56;16.70;;;8.30;;
77018;SDS011;66044;53.142;17.962;2024-02-26T13:01:23;14.50;;;7.80;;
77018;SDS011;66044;53.142;17.962;2024-02-26T13:03:50;18.00;;;9.00;;
77018;SDS011;66044;53.142;17.962;2024-02-26T13:06:18;16.30;;;8.40;;
77018;SDS011;66044;53.142;17.962;2024-02-26T13:08:45;18.10;;;9.80;;
77018;SDS011;66044;53.142;17.962;2024-02-26T13:11:12;14.60;;;7.40;;
77018;SDS011;66044;53.142;17.962;2024-02-26T13:13:39;17.20;;;8.60;;
77018;SDS011;66044;53.142;17.962;2024-02-26T13:16:06;17.60;;;8.80;;
77018;SDS011;66044;53.142;17.962;2024-02-26T13:18:42;15.30;;;7.70;;
77018;SDS011;66044;53.142;17.962;2024-02-26T13:21:13;12.40;;;6.90;;
77018;SDS011;66044;53.142;17.962;2024-02-26T13:23:42;15.90;;;8.10;;
77018;SDS011;66044;53.142;17.962;2024-02-26T13:26:08;14.70;;;7.90;;
77018;SDS011;66044;53.142;17.962;2024-02-26T13:28:38;15.60;;;8.30;;
77018;SDS011;66044;53.142;17.962;2024-02-26T13:31:04;14.50;;;8.10;;
77018;SDS011;66044;53.142;17.962;2024-02-26T13:33:33;18.30;;;8.80;;
77018;SDS011;66044;53.142;17.962;2024-02-26T13:35:59;18.00;;;8.10;;
77018;SDS011;66044;53.142;17.962;2024-02-26T13:38:26;13.70;;;7.60;;
77018;SDS011;66044;53.142;17.962;2024-02-26T13:40:53;15.20;;;8.20;;
77018;SDS011;66044;53.142;17.962;2024-02-26T13:43:20;14.20;;;7.90;;
77018;SDS011;66044;53.142;17.962;2024-02-26T13:45:46;19.20;;;9.60;;
77018;SDS011;66044;53.142;17.962;2024-02-26T13:48:14;18.30;;;11.10;;
77018;SDS011;66044;53.142;17.962;2024-02-26T13:50:40;18.40;;;9.90;;
77018;SDS011;66044;53.142;17.962;2024-02-26T13:53:08;14.60;;;8.50;;
77018;SDS011;66044;53.142;17.962;2024-02-26T13:55:35;16.30;;;8.50;;
77018;SDS011;66044;53.142;17.962;2024-02-26T13:58:01;21.70;;;11.30;;
77018;SDS011;66044;53.142;17.962;2024-02-26T14:00:29;16.40;;;8.20;;
77018;SDS011;66044;53.142;17.962;2024-02-26T14:02:59;19.90;;;9.10;;
77018;SDS011;66044;53.142;17.962;2024-02-26T14:05:39;18.80;;;10.50;;
77018;SDS011;66044;53.142;17.962;2024-02-26T14:08:06;18.60;;;10.50;;
77018;SDS011;66044;53.142;17.962;2024-02-26T14:10:32;21.10;;;11.10;;
77018;SDS011;66044;53.142;17.962;2024-02-26T14:12:58;17.60;;;10.30;;
77018;SDS011;66044;53.142;17.962;2024-02-26T14:15:25;20.30;;;11.70;;
77018;SDS011;66044;53.142;17.962;2024-02-26T14:17:52;23.70;;;13.80;;
77018;SDS011;66044;53.142;17.962;2024-02-26T14:20:22;26.50;;;13.50;;